Time;durP1;ratioP1;P1;durP2;ratioP2;P2;SDS_P1;SDS_P2;PMS_P1;PMS_P2;Temp;Humidity;BMP_temperature;BMP_pressure;BME280_temperature;BME280_humidity;BME280_pressure;Samples;Min_cycle;Max_cycle;Signal;HPM_P1;HPM_P2
2022/03/02 00:00:15;;;;;;;27.33;13.45;;;-0.70;62.80;;;;;;4924898;28;20364;-65
2022/03/02 00:02:42;;;;;;;24.58;13.30;;;-0.80;62.70;;;;;;4921953;28;20032;-66
2022/03/02 00:05:08;;;;;;;26.23;12.50;;;-0.80;62.80;;;;;;4924222;28;20032;-66
2022/03/02 00:07:33;;;;;;;24.90;12.45;;;-0.80;62.80;;;;;;4923572;28;20095;-66
2022/03/02 00:09:59;;;;;;;21.13;11.88;;;-0.90;62.90;;;;;;4921623;28;20040;-66
2022/03/02 00:12:25;;;;;;;23.33;13.13;;;-0.90;62.80;;;;;;4921140;28;20054;-65
2022/03/02 00:14:50;;;;;;;27.52;13.80;;;-0.90;63.00;;;;;;4922860;28;20042;-66
2022/03/02 00:17:16;;;;;;;26.67;14.07;;;-1.00;63.00;;;;;;4923392;28;20495;-66
2022/03/02 00:19:42;;;;;;;24.27;12.95;;;-1.00;63.10;;;;;;4922242;28;20035;-66
2022/03/02 00:22:07;;;;;;;26.02;13.90;;;-1.00;63.20;;;;;;4919142;29;20036;-66
2022/03/02 00:24:33;;;;;;;25.08;13.65;;;-1.00;63.20;;;;;;4920083;28;20035;-66
2022/03/02 00:26:59;;;;;;;25.88;13.60;;;-1.10;63.20;;;;;;4923271;28;20028;-66
2022/03/02 00:29:25;;;;;;;26.20;13.45;;;-1.10;63.30;;;;;;4922032;28;20036;-66
2022/03/02 00:31:52;;;;;;;26.80;13.35;;;-1.20;63.20;;;;;;4925405;28;20110;-65
2022/03/02 00:34:17;;;;;;;27.65;13.73;;;-1.20;63.40;;;;;;4923271;28;20092;-66
2022/03/02 00:36:43;;;;;;;28.80;14.73;;;-1.20;63.30;;;;;;4922290;28;20716;-66
2022/03/02 00:39:09;;;;;;;30.55;14.50;;;-1.20;63.20;;;;;;4922924;28;20440;-66
2022/03/02 00:41:35;;;;;;;31.33;14.73;;;-1.20;63.30;;;;;;4923122;28;20054;-65
2022/03/02 00:44:01;;;;;;;27.00;14.10;;;-1.20;63.30;;;;;;4922059;28;20028;-67
2022/03/02 00:46:29;;;;;;;27.40;14.55;;;-1.30;63.30;;;;;;4923697;28;20648;-66
2022/03/02 00:48:56;;;;;;;28.15;14.35;;;-1.30;63.20;;;;;;4921341;28;20028;-66
2022/03/02 00:51:23;;;;;;;34.05;16.02;;;-1.30;63.30;;;;;;4921633;28;20044;-65
2022/03/02 00:53:50;;;;;;;32.75;16.35;;;-1.30;63.70;;;;;;4923598;28;20036;-65
2022/03/02 00:56:15;;;;;;;33.53;16.40;;;-1.40;63.70;;;;;;4921438;28;20047;-65
2022/03/02 00:58:41;;;;;;;28.08;14.13;;;-1.40;63.70;;;;;;4922630;28;20032;-66
2022/03/02 01:01:06;;;;;;;32.60;13.90;;;-1.40;64.00;;;;;;4921851;28;20036;-65
2022/03/02 01:03:32;;;;;;;28.92;14.70;;;-1.40;64.20;;;;;;4925734;28;20094;-66
2022/03/02 01:05:59;;;;;;;31.98;14.68;;;-1.40;64.40;;;;;;4927630;28;20048;-66
2022/03/02 01:08:24;;;;;;;28.52;14.48;;;-1.50;64.20;;;;;;4927315;28;20046;-66
2022/03/02 01:10:50;;;;;;;25.55;14.00;;;-1.50;64.10;;;;;;4926196;28;20032;-66
2022/03/02 01:13:15;;;;;;;24.88;13.93;;;-1.50;64.00;;;;;;4927632;28;20058;-66
2022/03/02 01:15:41;;;;;;;27.52;13.20;;;-1.50;64.00;;;;;;4928989;28;20047;-65
2022/03/02 01:18:07;;;;;;;24.80;13.00;;;-1.50;63.90;;;;;;4926561;28;20411;-66
2022/03/02 01:20:33;;;;;;;26.42;13.80;;;-1.50;64.00;;;;;;4928856;28;20031;-66
2022/03/02 01:22:58;;;;;;;28.77;13.52;;;-1.60;63.90;;;;;;4931033;28;20103;-66
2022/03/02 01:25:25;;;;;;;28.25;13.82;;;-1.50;64.00;;;;;;4930686;28;20079;-66
2022/03/02 01:27:51;;;;;;;24.23;12.75;;;-1.60;64.00;;;;;;4931465;28;20114;-66
2022/03/02 01:30:17;;;;;;;29.90;14.18;;;-1.60;64.00;;;;;;4931076;28;20063;-66
2022/03/02 01:32:42;;;;;;;30.35;13.85;;;-1.50;63.90;;;;;;4930767;28;20519;-66
2022/03/02 01:35:11;;;;;;;26.98;13.63;;;-1.50;64.00;;;;;;4931707;28;20036;-66
2022/03/02 01:37:37;;;;;;;29.77;14.05;;;-1.50;63.90;;;;;;4931922;28;20043;-65
2022/03/02 01:40:04;;;;;;;28.95;14.13;;;-1.50;63.80;;;;;;4924726;29;20046;-66
2022/03/02 01:42:30;;;;;;;26.15;14.50;;;-1.40;63.90;;;;;;4929728;28;20094;-65
2022/03/02 01:44:55;;;;;;;28.05;13.73;;;-1.40;63.80;;;;;;4924945;29;20047;-66
2022/03/02 01:47:26;;;;;;;28.60;14.48;;;-1.50;63.90;;;;;;4931316;28;20040;-66
2022/03/02 01:49:51;;;;;;;27.02;13.85;;;-1.50;63.90;;;;;;4931061;28;20034;-66
2022/03/02 01:52:17;;;;;;;27.10;13.85;;;-1.50;63.90;;;;;;4930640;28;20035;-67
2022/03/02 01:54:43;;;;;;;28.27;13.95;;;-1.50;63.90;;;;;;4929272;28;20047;-66
2022/03/02 01:57:10;;;;;;;25.90;14.20;;;-1.50;64.00;;;;;;4929575;28;20036;-65
2022/03/02 01:59:37;;;;;;;39.17;17.42;;;-1.60;64.00;;;;;;4930668;28;20039;-66
2022/03/02 02:02:03;;;;;;;43.88;18.27;;;-1.60;64.30;;;;;;4930274;29;20040;-66
2022/03/02 02:04:28;;;;;;;36.17;16.52;;;-1.70;64.50;;;;;;4931510;28;21556;-65
2022/03/02 02:06:54;;;;;;;50.33;18.23;;;-1.70;64.90;;;;;;4925857;28;20040;-66
2022/03/02 02:09:20;;;;;;;36.28;16.02;;;-1.70;65.50;;;;;;4924511;28;20185;-66
2022/03/02 02:11:46;;;;;;;37.30;16.13;;;-1.70;64.70;;;;;;4924711;29;20036;-64
2022/03/02 02:14:12;;;;;;;31.58;15.20;;;-1.70;64.70;;;;;;4924325;28;20048;-65
2022/03/02 02:16:37;;;;;;;29.75;14.82;;;-1.70;64.70;;;;;;4924855;28;20424;-65
2022/03/02 02:19:03;;;;;;;28.30;13.95;;;-1.70;64.60;;;;;;4923616;29;20211;-66
2022/03/02 02:21:29;;;;;;;30.85;15.13;;;-1.70;64.60;;;;;;4924668;28;20040;-66
2022/03/02 02:23:55;;;;;;;35.22;16.35;;;-1.70;64.40;;;;;;4928006;28;20087;-66
2022/03/02 02:26:21;;;;;;;43.20;18.50;;;-1.70;64.60;;;;;;4925437;28;20047;-66
2022/03/02 02:28:48;;;;;;;69.03;22.80;;;-1.80;64.60;;;;;;4926007;28;20079;-66
2022/03/02 02:31:15;;;;;;;60.10;21.40;;;-1.80;64.80;;;;;;4923505;28;20032;-66
2022/03/02 02:33:41;;;;;;;40.13;16.58;;;-1.90;64.80;;;;;;4925588;28;20044;-65
2022/03/02 02:36:07;;;;;;;49.20;19.67;;;-1.90;65.00;;;;;;4924848;28;20447;-66
2022/03/02 02:38:33;;;;;;;49.08;18.65;;;-1.90;65.10;;;;;;4925029;28;20027;-66
2022/03/02 02:40:59;;;;;;;51.38;19.55;;;-1.90;65.30;;;;;;4924098;29;20122;-65
2022/03/02 02:43:26;;;;;;;40.78;18.50;;;-1.90;65.30;;;;;;4926494;28;20543;-66
2022/03/02 02:45:52;;;;;;;37.42;17.15;;;-1.90;65.30;;;;;;4924329;28;20134;-66
2022/03/02 02:48:19;;;;;;;31.85;15.15;;;-1.90;65.20;;;;;;4924443;28;20055;-64
2022/03/02 02:50:45;;;;;;;29.08;14.02;;;-2.00;65.10;;;;;;4924000;28;20054;-66
2022/03/02 02:53:12;;;;;;;28.25;14.43;;;-1.90;65.20;;;;;;4924715;28;20391;-65
2022/03/02 02:55:39;;;;;;;27.23;14.27;;;-1.90;65.20;;;;;;4923517;28;20040;-66
2022/03/02 02:58:06;;;;;;;24.05;13.50;;;-1.90;65.30;;;;;;4922671;28;20036;-64
2022/03/02 03:00:35;;;;;;;25.25;13.18;;;-1.80;65.30;;;;;;4926364;28;20032;-66
2022/03/02 03:03:01;;;;;;;25.27;13.27;;;-1.80;65.40;;;;;;4924002;28;20697;-66
2022/03/02 03:05:31;;;;;;;26.98;14.13;;;-1.80;65.10;;;;;;4923391;28;20040;-65
2022/03/02 03:08:06;;;;;;;27.73;13.65;;;-1.80;65.10;;;;;;4943528;28;20130;-66
2022/03/02 03:10:32;;;;;;;25.60;12.75;;;-1.80;65.10;;;;;;4937229;28;20035;-65
2022/03/02 03:12:58;;;;;;;25.60;13.80;;;-1.80;65.10;;;;;;4919866;29;20055;-66
2022/03/02 03:15:24;;;;;;;26.65;13.88;;;-1.80;65.10;;;;;;4922936;28;20471;-66
2022/03/02 03:17:51;;;;;;;29.48;14.25;;;-1.70;65.30;;;;;;4923938;28;20067;-66
2022/03/02 03:20:19;;;;;;;27.60;14.27;;;-1.70;65.40;;;;;;4922860;28;20408;-66
2022/03/02 03:22:44;;;;;;;27.15;13.23;;;-1.70;65.30;;;;;;4924231;28;20031;-66
2022/03/02 03:25:12;;;;;;;30.20;14.75;;;-1.60;65.40;;;;;;4923505;28;20044;-66
2022/03/02 03:27:39;;;;;;;29.70;14.57;;;-1.60;65.40;;;;;;4925805;28;20031;-65
2022/03/02 03:30:06;;;;;;;26.20;14.43;;;-1.60;65.50;;;;;;4922177;28;20050;-64
2022/03/02 03:32:32;;;;;;;23.90;13.02;;;-1.60;65.50;;;;;;4923246;28;20106;-65
2022/03/02 03:34:59;;;;;;;23.30;13.20;;;-1.50;65.50;;;;;;4922179;28;20035;-66
2022/03/02 03:37:25;;;;;;;25.52;13.63;;;-1.50;65.40;;;;;;4919448;29;20044;-65
2022/03/02 03:39:51;;;;;;;21.60;12.85;;;-1.50;65.30;;;;;;4922906;28;20032;-66
2022/03/02 03:42:16;;;;;;;26.73;13.25;;;-1.50;65.30;;;;;;4921400;28;22267;-66
2022/03/02 03:44:42;;;;;;;23.30;12.90;;;-1.50;65.20;;;;;;4922953;28;20130;-66
2022/03/02 03:47:08;;;;;;;24.30;12.82;;;-1.40;65.10;;;;;;4922779;28;20059;-65
2022/03/02 03:49:34;;;;;;;24.25;12.45;;;-1.50;64.90;;;;;;4923823;28;20043;-66
2022/03/02 03:52:00;;;;;;;27.02;13.43;;;-1.50;64.80;;;;;;4923874;28;20036;-64
2022/03/02 03:54:25;;;;;;;24.88;12.95;;;-1.40;64.80;;;;;;4921417;28;20043;-66
2022/03/02 03:56:51;;;;;;;24.05;13.07;;;-1.40;64.70;;;;;;4925534;28;20040;-66
2022/03/02 03:59:17;;;;;;;27.48;13.38;;;-1.50;64.60;;;;;;4923173;28;20036;-66
2022/03/02 04:01:42;;;;;;;22.70;13.68;;;-1.50;64.40;;;;;;4925213;28;20444;-65
2022/03/02 04:04:08;;;;;;;26.17;13.88;;;-1.50;64.40;;;;;;4923399;28;20239;-65
2022/03/02 04:06:34;;;;;;;27.77;13.63;;;-1.60;64.20;;;;;;4924450;28;20092;-66
2022/03/02 04:08:59;;;;;;;25.98;14.25;;;-1.60;64.30;;;;;;4924753;28;20039;-66
2022/03/02 04:11:25;;;;;;;25.27;14.05;;;-1.70;64.40;;;;;;4921162;29;20028;-65
2022/03/02 04:13:51;;;;;;;27.08;13.82;;;-1.70;64.60;;;;;;4922739;28;20038;-66
2022/03/02 04:16:16;;;;;;;24.92;13.50;;;-1.80;64.80;;;;;;4923692;28;21078;-66
2022/03/02 04:18:42;;;;;;;26.55;14.38;;;-1.90;64.80;;;;;;4923014;28;20399;-64
2022/03/02 04:21:08;;;;;;;30.00;15.30;;;-1.90;64.90;;;;;;4923529;28;20035;-65
2022/03/02 04:23:34;;;;;;;31.00;15.52;;;-2.00;65.00;;;;;;4925244;28;20110;-66
2022/03/02 04:25:59;;;;;;;35.10;16.67;;;-2.00;65.30;;;;;;4922585;29;20130;-66
2022/03/02 04:28:25;;;;;;;30.77;15.65;;;-2.10;65.30;;;;;;4923771;28;20444;-66
2022/03/02 04:30:51;;;;;;;29.75;14.93;;;-2.10;65.40;;;;;;4922075;29;20042;-66
2022/03/02 04:33:17;;;;;;;38.33;14.73;;;-2.10;65.60;;;;;;4922334;28;20103;-66
2022/03/02 04:35:42;;;;;;;31.23;14.07;;;-2.20;65.70;;;;;;4923282;28;20119;-66
2022/03/02 04:38:10;;;;;;;24.15;13.48;;;-2.20;65.90;;;;;;4922452;28;20031;-66
2022/03/02 04:40:36;;;;;;;29.17;13.80;;;-2.30;66.00;;;;;;4922666;28;20039;-66
2022/03/02 04:43:03;;;;;;;26.67;14.73;;;-2.30;66.10;;;;;;4922065;28;20039;-66
2022/03/02 04:45:29;;;;;;;24.65;13.82;;;-2.30;66.30;;;;;;4923179;28;20059;-65
2022/03/02 04:47:56;;;;;;;29.60;13.98;;;-2.30;66.50;;;;;;4921997;28;20099;-64
2022/03/02 04:50:22;;;;;;;27.42;13.85;;;-2.30;67.80;;;;;;4917430;28;20507;-65
2022/03/02 04:52:52;;;;;;;21.92;13.45;;;-2.30;67.20;;;;;;4922303;28;20046;-65
2022/03/02 04:55:18;;;;;;;26.45;15.57;;;-2.30;67.30;;;;;;4924944;28;21530;-66
2022/03/02 04:57:49;;;;;;;24.63;14.10;;;-2.30;67.00;;;;;;4921838;28;20145;-66
2022/03/02 05:00:15;;;;;;;26.70;12.52;;;-2.20;67.20;;;;;;4926832;28;21607;-66
2022/03/02 05:02:41;;;;;;;24.05;13.15;;;-2.20;66.90;;;;;;4927034;28;20048;-66
2022/03/02 05:05:08;;;;;;;29.42;14.85;;;-2.20;66.70;;;;;;4926889;28;20099;-65
2022/03/02 05:07:34;;;;;;;30.15;15.32;;;-2.20;66.80;;;;;;4926294;28;20035;-65
2022/03/02 05:10:01;;;;;;;26.45;13.82;;;-2.20;66.60;;;;;;4926352;28;20032;-65
2022/03/02 05:12:26;;;;;;;27.05;14.98;;;-2.20;66.60;;;;;;4922556;28;20118;-66
2022/03/02 05:14:52;;;;;;;26.55;14.73;;;-2.20;66.50;;;;;;4926929;29;20492;-66
2022/03/02 05:17:18;;;;;;;25.48;13.73;;;-2.20;66.50;;;;;;4927793;28;20044;-66
2022/03/02 05:19:44;;;;;;;27.02;14.10;;;-2.10;66.60;;;;;;4926370;28;20046;-66
2022/03/02 05:22:10;;;;;;;26.80;14.18;;;-2.10;66.50;;;;;;4924070;28;20610;-66
2022/03/02 05:24:36;;;;;;;31.25;13.38;;;-2.10;66.40;;;;;;4926477;28;20050;-66
2022/03/02 05:27:02;;;;;;;26.90;14.07;;;-2.10;66.30;;;;;;4922627;28;20032;-63
2022/03/02 05:29:28;;;;;;;28.25;13.93;;;-2.20;66.30;;;;;;4921510;28;20078;-65
2022/03/02 05:31:54;;;;;;;25.65;13.88;;;-2.20;66.20;;;;;;4915541;28;20519;-64
2022/03/02 05:34:19;;;;;;;25.15;13.77;;;-2.20;66.20;;;;;;4923737;28;20039;-65
2022/03/02 05:36:45;;;;;;;26.27;14.02;;;-2.20;66.30;;;;;;4925140;28;20074;-65
2022/03/02 05:39:10;;;;;;;21.80;12.98;;;-2.30;66.10;;;;;;4926207;28;20040;-65
2022/03/02 05:41:38;;;;;;;23.83;13.25;;;-2.30;66.10;;;;;;4928965;28;20047;-66
2022/03/02 05:44:04;;;;;;;28.23;14.80;;;-2.30;66.00;;;;;;4927623;28;20040;-65
2022/03/02 05:46:31;;;;;;;22.83;13.65;;;-2.30;66.10;;;;;;4929716;28;20082;-65
2022/03/02 05:48:57;;;;;;;24.63;14.43;;;-2.30;66.10;;;;;;4929526;28;20594;-65
2022/03/02 05:51:23;;;;;;;28.83;13.90;;;-2.30;66.10;;;;;;4929999;28;20175;-66
2022/03/02 05:53:48;;;;;;;24.17;14.18;;;-2.40;66.10;;;;;;4929212;29;20035;-66
2022/03/02 05:56:14;;;;;;;27.38;14.13;;;-2.40;66.20;;;;;;4929623;28;20185;-65
2022/03/02 05:58:39;;;;;;;29.83;14.80;;;-2.40;67.00;;;;;;4928380;28;20392;-65
2022/03/02 06:01:05;;;;;;;33.85;14.40;;;-2.50;66.10;;;;;;4927708;28;20031;-64
2022/03/02 06:03:32;;;;;;;32.78;15.00;;;-2.50;66.10;;;;;;4929322;28;20496;-65
2022/03/02 06:05:57;;;;;;;32.85;15.98;;;-2.50;66.30;;;;;;4927936;28;20423;-65
2022/03/02 06:08:24;;;;;;;33.60;15.20;;;-2.60;66.20;;;;;;4928841;28;20036;-66
2022/03/02 06:10:49;;;;;;;29.17;16.10;;;-2.60;66.40;;;;;;4926287;28;20050;-66
2022/03/02 06:13:15;;;;;;;40.03;17.23;;;-2.60;66.50;;;;;;4926804;28;20040;-65
2022/03/02 06:15:42;;;;;;;33.80;17.65;;;-2.60;66.60;;;;;;4925235;28;20689;-66
2022/03/02 06:18:09;;;;;;;33.40;16.63;;;-2.70;66.80;;;;;;4924590;28;20471;-66
2022/03/02 06:20:35;;;;;;;28.50;16.27;;;-2.70;66.80;;;;;;4924295;28;20043;-65
2022/03/02 06:23:02;;;;;;;30.88;16.38;;;-2.70;66.80;;;;;;4925351;29;20043;-65
2022/03/02 06:25:28;;;;;;;29.05;15.63;;;-2.70;67.00;;;;;;4927015;28;20130;-65
2022/03/02 06:27:54;;;;;;;33.72;15.93;;;-2.60;66.90;;;;;;4927871;29;20057;-65
2022/03/02 06:30:19;;;;;;;29.20;14.45;;;-2.60;66.90;;;;;;4927357;28;20396;-65
2022/03/02 06:32:45;;;;;;;31.95;14.80;;;-2.60;67.00;;;;;;4926085;28;20103;-65
2022/03/02 06:35:12;;;;;;;32.75;16.55;;;-2.60;67.00;;;;;;4927618;28;20047;-66
2022/03/02 06:37:37;;;;;;;32.72;15.50;;;-2.60;67.00;;;;;;4926779;28;20036;-66
2022/03/02 06:40:06;;;;;;;34.63;16.20;;;-2.60;67.20;;;;;;4925282;28;20081;-65
2022/03/02 06:42:53;;;;;;;33.65;15.07;;;-2.60;67.20;;;;;;4926192;28;20080;-64
2022/03/02 06:45:49;;;;;;;34.13;16.73;;;-2.60;67.60;;;;;;4924934;28;20048;-65
2022/03/02 06:48:25;;;;;;;34.88;16.55;;;-2.50;67.30;;;;;;4922879;28;20043;-64
2022/03/02 06:50:53;;;;;;;30.05;16.23;;;-2.50;67.50;;;;;;4925140;28;20039;-64
2022/03/02 06:53:32;;;;;;;29.83;16.73;;;-2.40;67.40;;;;;;4924459;28;20074;-64
2022/03/02 06:56:03;;;;;;;33.25;15.48;;;-2.40;67.80;;;;;;4926418;28;20036;-64
2022/03/02 06:58:53;;;;;;;26.75;13.35;;;-2.40;67.50;;;;;;4924425;28;20086;-64
2022/03/02 07:01:31;;;;;;;32.15;16.45;;;-2.30;67.70;;;;;;4924934;28;20546;-64
2022/03/02 07:03:59;;;;;;;34.22;16.30;;;-2.20;67.90;;;;;;4925780;28;20091;-65
2022/03/02 07:06:26;;;;;;;38.03;17.25;;;-2.20;67.70;;;;;;4923833;28;20055;-65
2022/03/02 07:08:54;;;;;;;39.70;15.73;;;-2.10;67.90;;;;;;4926061;28;20090;-64
2022/03/02 07:11:21;;;;;;;36.83;16.05;;;-2.10;67.90;;;;;;4917706;29;20032;-64
2022/03/02 07:13:48;;;;;;;31.95;16.77;;;-2.00;67.90;;;;;;4926954;28;20127;-64
2022/03/02 07:16:16;;;;;;;32.65;16.42;;;-1.90;68.00;;;;;;4927292;28;20039;-65
2022/03/02 07:18:42;;;;;;;32.05;16.33;;;-1.80;68.20;;;;;;4924118;28;20032;-64
2022/03/02 07:21:15;;;;;;;29.15;16.67;;;-1.80;68.10;;;;;;4926877;28;20063;-64
2022/03/02 07:23:59;;;;;;;32.40;17.17;;;-1.70;68.30;;;;;;4926508;28;20038;-65
2022/03/02 07:26:28;;;;;;;28.73;16.33;;;-1.60;68.60;;;;;;4923942;28;20087;-65
2022/03/02 07:28:54;;;;;;;37.60;17.58;;;-1.50;68.40;;;;;;4921226;28;20038;-64
2022/03/02 07:31:22;;;;;;;39.20;17.60;;;-1.40;68.40;;;;;;4926236;28;20054;-65
2022/03/02 07:33:51;;;;;;;31.15;17.20;;;-1.40;68.20;;;;;;4923769;28;20171;-64
2022/03/02 07:36:20;;;;;;;32.22;17.15;;;-1.30;69.10;;;;;;4925054;28;20051;-65
2022/03/02 07:38:45;;;;;;;37.33;16.75;;;-1.20;68.20;;;;;;4946292;28;20450;-64
2022/03/02 07:41:11;;;;;;;34.20;17.35;;;-1.10;68.10;;;;;;4924436;29;20283;-65
2022/03/02 07:43:39;;;;;;;35.10;15.88;;;-1.00;68.20;;;;;;4925358;29;20066;-65
2022/03/02 07:46:06;;;;;;;28.45;16.65;;;-1.00;68.10;;;;;;4926031;28;20339;-64
2022/03/02 07:48:32;;;;;;;29.27;16.70;;;-0.90;67.90;;;;;;4925226;28;20091;-64
2022/03/02 07:51:00;;;;;;;31.40;16.40;;;-0.80;68.00;;;;;;4923650;29;20035;-65
2022/03/02 07:53:28;;;;;;;30.08;16.98;;;-0.70;68.20;;;;;;4924871;28;20039;-65
2022/03/02 07:55:54;;;;;;;35.78;19.40;;;-0.60;68.20;;;;;;4925304;29;20070;-64
2022/03/02 07:58:21;;;;;;;35.55;18.60;;;-0.60;68.10;;;;;;4924431;28;20043;-65
2022/03/02 08:00:48;;;;;;;42.67;21.27;;;-0.50;68.20;;;;;;4924379;28;20044;-65
2022/03/02 08:03:15;;;;;;;31.73;18.45;;;-0.50;68.50;;;;;;4924483;29;20051;-65
2022/03/02 08:05:43;;;;;;;32.63;17.42;;;-0.40;68.40;;;;;;4922707;28;20167;-65
2022/03/02 08:08:10;;;;;;;28.20;16.77;;;-0.40;68.20;;;;;;4924402;29;20044;-65
2022/03/02 08:10:36;;;;;;;29.75;16.08;;;-0.30;68.20;;;;;;4921822;28;20106;-65
2022/03/02 08:13:02;;;;;;;30.00;16.75;;;-0.20;68.20;;;;;;4923080;28;20054;-64
2022/03/02 08:15:28;;;;;;;29.67;16.13;;;-0.10;68.10;;;;;;4924092;28;20507;-65
2022/03/02 08:17:55;;;;;;;37.10;15.65;;;-0.10;68.00;;;;;;4922449;29;20038;-65
2022/03/02 08:20:21;;;;;;;30.15;16.00;;;0.00;68.00;;;;;;4920939;28;20039;-64
2022/03/02 08:22:51;;;;;;;28.83;16.02;;;0.10;68.00;;;;;;4925984;28;20036;-65
2022/03/02 08:25:22;;;;;;;28.58;15.52;;;0.20;67.80;;;;;;4925652;28;20609;-65
2022/03/02 08:27:51;;;;;;;30.30;14.43;;;0.20;67.60;;;;;;4925702;28;20043;-65
2022/03/02 08:30:17;;;;;;;26.75;14.77;;;0.20;67.40;;;;;;4924540;28;20101;-64
2022/03/02 08:32:44;;;;;;;24.73;14.52;;;0.20;67.50;;;;;;4924193;28;20514;-65
2022/03/02 08:35:11;;;;;;;24.02;14.35;;;0.30;67.50;;;;;;4925601;28;20044;-64
2022/03/02 08:37:36;;;;;;;26.15;14.70;;;0.30;67.30;;;;;;4925174;28;20036;-65
2022/03/02 08:40:04;;;;;;;25.27;15.00;;;0.40;67.20;;;;;;4923923;29;20573;-64
2022/03/02 08:42:32;;;;;;;29.23;14.68;;;0.40;67.20;;;;;;4921940;28;20236;-65
2022/03/02 08:44:57;;;;;;;27.00;14.80;;;0.50;67.00;;;;;;4920139;29;20043;-63
2022/03/02 08:47:23;;;;;;;23.35;13.52;;;0.60;66.80;;;;;;4924796;29;20040;-65
2022/03/02 08:49:50;;;;;;;24.95;14.23;;;0.60;66.90;;;;;;4924442;28;20472;-64
2022/03/02 08:52:20;;;;;;;25.95;14.45;;;0.70;66.80;;;;;;4925001;28;20228;-64
2022/03/02 08:54:47;;;;;;;23.65;14.38;;;0.80;66.60;;;;;;4924077;28;20036;-64
2022/03/02 08:57:15;;;;;;;30.58;15.52;;;0.80;66.50;;;;;;4923375;28;20123;-64
2022/03/02 08:59:41;;;;;;;24.55;14.88;;;0.90;66.40;;;;;;4922279;29;20032;-65
2022/03/02 09:02:08;;;;;;;23.95;13.90;;;1.00;66.30;;;;;;4920520;28;20051;-66
2022/03/02 09:04:35;;;;;;;28.33;15.40;;;1.00;66.00;;;;;;4924774;28;20514;-65
2022/03/02 09:07:03;;;;;;;29.38;15.30;;;1.10;65.90;;;;;;4923840;28;20035;-66
2022/03/02 09:09:30;;;;;;;26.02;15.02;;;1.20;66.00;;;;;;4921632;28;20062;-65
2022/03/02 09:11:55;;;;;;;25.50;14.75;;;1.20;66.20;;;;;;4922712;29;20035;-64
2022/03/02 09:14:22;;;;;;;24.65;14.13;;;1.30;66.20;;;;;;4925866;28;20039;-65
2022/03/02 09:16:48;;;;;;;24.38;14.10;;;1.40;66.10;;;;;;4925997;28;20098;-64
2022/03/02 09:19:14;;;;;;;23.27;14.13;;;1.40;65.80;;;;;;4924841;29;20039;-65
2022/03/02 09:21:44;;;;;;;23.77;14.25;;;1.50;65.40;;;;;;4926615;28;20127;-65
2022/03/02 09:24:11;;;;;;;22.23;13.55;;;1.50;65.10;;;;;;4924502;28;20190;-65
2022/03/02 09:26:38;;;;;;;25.63;14.32;;;1.60;64.90;;;;;;4922840;29;20067;-65
2022/03/02 09:29:05;;;;;;;22.85;13.80;;;1.70;65.20;;;;;;4926243;28;20178;-65
2022/03/02 09:31:33;;;;;;;26.60;15.00;;;1.70;65.30;;;;;;4925829;28;20563;-64
2022/03/02 09:34:01;;;;;;;27.20;14.60;;;1.80;65.40;;;;;;4927513;28;20115;-64
2022/03/02 09:36:27;;;;;;;27.45;15.18;;;1.90;64.90;;;;;;4925073;28;20510;-63
2022/03/02 09:38:54;;;;;;;24.55;14.85;;;1.90;64.40;;;;;;4925177;28;20040;-65
2022/03/02 09:41:31;;;;;;;23.88;14.30;;;2.00;64.40;;;;;;4920960;29;20040;-65
2022/03/02 09:43:58;;;;;;;25.45;16.10;;;2.00;64.60;;;;;;4928010;28;20201;-66
2022/03/02 09:46:38;;;;;;;27.55;14.95;;;2.00;64.60;;;;;;4927254;28;20054;-66
2022/03/02 09:49:07;;;;;;;27.23;14.63;;;2.10;64.90;;;;;;4928361;28;20075;-65
2022/03/02 09:51:33;;;;;;;22.25;14.63;;;2.10;65.00;;;;;;4924412;29;20582;-65
2022/03/02 09:54:01;;;;;;;25.15;14.95;;;2.20;65.20;;;;;;4928244;28;20526;-65
2022/03/02 09:56:31;;;;;;;24.23;15.48;;;2.30;65.10;;;;;;4926711;28;20558;-65
2022/03/02 09:58:58;;;;;;;25.25;15.40;;;2.30;64.90;;;;;;4928179;29;20039;-65
2022/03/02 10:01:26;;;;;;;24.15;14.93;;;2.40;64.60;;;;;;4927976;28;20554;-65
2022/03/02 10:03:53;;;;;;;24.75;14.95;;;2.50;64.50;;;;;;4928606;29;20448;-65
2022/03/02 10:06:20;;;;;;;22.83;14.55;;;2.60;64.70;;;;;;4927745;28;20128;-64
2022/03/02 10:08:49;;;;;;;28.98;16.48;;;2.70;64.80;;;;;;4926766;28;20066;-64
2022/03/02 10:11:18;;;;;;;28.08;16.48;;;2.80;64.80;;;;;;4925305;29;20139;-65
2022/03/02 10:13:44;;;;;;;24.70;15.07;;;2.80;64.50;;;;;;4928132;28;20034;-65
2022/03/02 10:16:22;;;;;;;23.10;15.40;;;2.90;64.40;;;;;;4927994;28;20040;-65
2022/03/02 10:18:57;;;;;;;25.90;14.57;;;3.00;64.30;;;;;;4927800;28;20467;-65
2022/03/02 10:21:32;;;;;;;;;;;3.10;64.00;;;;;;4928263;28;20341;-64
2022/03/02 10:24:00;;;;;;;24.98;15.88;;;3.20;64.00;;;;;;4927142;29;19914;-65
2022/03/02 10:26:31;;;;;;;23.98;14.32;;;3.30;63.80;;;;;;4926814;28;20035;-65
2022/03/02 10:29:34;;;;;;;25.55;14.63;;;3.30;63.60;;;;;;4927039;29;20496;-65
2022/03/02 10:32:15;;;;;;;20.52;13.30;;;3.40;63.50;;;;;;4926953;28;20130;-65
2022/03/02 10:34:48;;;;;;;25.70;14.85;;;3.50;63.30;;;;;;4926844;28;20036;-65
2022/03/02 10:37:27;;;;;;;24.65;14.70;;;3.60;63.30;;;;;;4927942;28;20625;-65
2022/03/02 10:39:56;;;;;;;26.65;14.02;;;3.70;63.30;;;;;;4925774;29;20039;-64
2022/03/02 10:42:29;;;;;;;23.42;13.93;;;3.80;63.20;;;;;;4925232;28;20044;-65
2022/03/02 10:45:06;;;;;;;23.25;14.10;;;3.90;62.90;;;;;;4924137;28;20071;-64
2022/03/02 10:47:34;;;;;;;22.83;14.35;;;4.00;62.80;;;;;;4926794;28;20123;-66
2022/03/02 10:50:01;;;;;;;21.70;14.25;;;4.00;62.90;;;;;;4926318;28;20158;-65
2022/03/02 10:52:28;;;;;;;20.98;13.40;;;4.10;62.70;;;;;;4925494;28;20078;-64
2022/03/02 10:54:56;;;;;;;23.00;13.20;;;4.20;62.60;;;;;;4926087;28;20395;-66
2022/03/02 10:57:25;;;;;;;22.98;14.93;;;4.30;62.50;;;;;;4925367;28;20061;-65
2022/03/02 10:59:55;;;;;;;22.33;14.55;;;4.40;62.30;;;;;;4925206;29;20059;-65
2022/03/02 11:02:24;;;;;;;23.52;14.45;;;4.50;62.00;;;;;;4926801;28;20040;-66
2022/03/02 11:04:53;;;;;;;21.42;13.60;;;4.60;62.00;;;;;;4927336;28;20114;-65
2022/03/02 11:07:20;;;;;;;21.33;13.32;;;4.60;61.80;;;;;;4928199;28;20072;-64
2022/03/02 11:09:51;;;;;;;20.52;13.05;;;4.70;61.80;;;;;;4924379;29;20036;-65
2022/03/02 11:12:20;;;;;;;22.92;13.70;;;4.80;61.60;;;;;;4923507;28;20068;-66
2022/03/02 11:15:04;;;;;;;24.17;14.02;;;4.90;61.60;;;;;;4925420;28;20035;-65
2022/03/02 11:17:30;;;;;;;21.73;13.43;;;5.00;61.00;;;;;;4926891;28;20040;-65
2022/03/02 11:19:57;;;;;;;22.83;14.40;;;5.00;61.10;;;;;;4925364;29;20067;-66
2022/03/02 11:22:27;;;;;;;24.00;13.50;;;5.10;60.90;;;;;;4925764;28;20114;-65
2022/03/02 11:24:57;;;;;;;23.50;13.68;;;5.20;60.60;;;;;;4925258;28;20384;-64
2022/03/02 11:27:45;;;;;;;23.92;13.38;;;5.30;60.60;;;;;;4918960;29;20799;-64
2022/03/02 11:30:15;;;;;;;20.75;13.40;;;5.40;60.00;;;;;;4907447;28;20050;-65
2022/03/02 11:32:43;;;;;;;20.52;12.98;;;5.40;60.40;;;;;;4906591;28;20053;-64
2022/03/02 11:35:13;;;;;;;21.35;13.50;;;5.50;60.10;;;;;;4904505;29;20040;-65
2022/03/02 11:37:40;;;;;;;22.15;13.07;;;5.60;60.10;;;;;;4906618;28;20071;-65
2022/03/02 11:40:09;;;;;;;21.52;13.77;;;5.70;59.90;;;;;;4905618;29;20583;-65
2022/03/02 11:42:38;;;;;;;22.98;14.90;;;5.70;59.60;;;;;;4903632;28;20393;-64
2022/03/02 11:45:06;;;;;;;18.70;13.13;;;5.80;59.50;;;;;;4906342;28;20044;-65
2022/03/02 11:47:41;;;;;;;22.23;13.20;;;5.90;59.50;;;;;;4910487;29;20512;-65
2022/03/02 11:50:12;;;;;;;20.00;13.27;;;5.90;59.20;;;;;;4908305;28;20040;-65
2022/03/02 11:52:47;;;;;;;19.15;13.30;;;6.00;59.40;;;;;;4910544;28;20040;-65
2022/03/02 11:55:18;;;;;;;21.95;13.25;;;6.10;59.20;;;;;;4910127;29;20044;-65
2022/03/02 11:57:47;;;;;;;20.90;12.52;;;6.20;59.20;;;;;;4910427;28;20036;-66
2022/03/02 12:00:18;;;;;;;21.52;13.82;;;6.20;59.10;;;;;;4910476;29;20501;-65
2022/03/02 12:02:56;;;;;;;20.13;12.48;;;6.30;59.10;;;;;;4909844;28;20048;-66
2022/03/02 12:05:27;;;;;;;20.42;12.25;;;6.40;58.20;;;;;;4909884;28;20048;-65
2022/03/02 12:08:10;;;;;;;20.02;13.07;;;6.50;58.50;;;;;;4910832;28;20040;-65
2022/03/02 12:10:39;;;;;;;19.85;11.82;;;6.60;58.10;;;;;;4907620;28;20099;-65
2022/03/02 12:13:05;;;;;;;16.88;11.40;;;6.60;58.10;;;;;;4909427;28;20048;-65
2022/03/02 12:16:00;;;;;;;19.98;12.80;;;6.60;57.60;;;;;;4910493;28;20531;-65
2022/03/02 12:18:25;;;;;;;18.90;12.25;;;6.70;57.20;;;;;;4925684;28;20067;-67
2022/03/02 12:20:54;;;;;;;18.92;12.57;;;6.80;57.50;;;;;;4928234;28;20066;-63
2022/03/02 12:23:24;;;;;;;17.52;11.65;;;6.80;57.40;;;;;;4928025;28;20087;-65
2022/03/02 12:25:51;;;;;;;18.33;12.10;;;6.90;57.40;;;;;;4928770;28;20048;-65
2022/03/02 12:28:18;;;;;;;17.00;11.63;;;7.00;57.30;;;;;;4928147;28;20040;-64
2022/03/02 12:30:43;;;;;;;16.98;11.38;;;7.00;57.00;;;;;;4928404;28;20054;-64
2022/03/02 12:33:10;;;;;;;17.50;11.77;;;7.10;56.90;;;;;;4929460;28;20031;-66